createdAt,value
2022-09-11T00:00:12.282Z,84.00
2022-09-11T00:04:04.877Z,83.80
2022-09-11T00:08:09.782Z,83.30
2022-09-11T00:12:07.444Z,82.90
2022-09-11T00:15:51.526Z,82.90
2022-09-11T00:19:35.661Z,82.90
2022-09-11T00:23:24.943Z,83.00
2022-09-11T00:27:07.018Z,83.00
2022-09-11T00:31:01.655Z,83.30
2022-09-11T00:34:44.740Z,83.30
2022-09-11T00:38:32.538Z,83.50
2022-09-11T00:42:14.329Z,83.40
2022-09-11T00:46:03.649Z,83.50
2022-09-11T00:49:51.239Z,83.40
2022-09-11T00:53:36.367Z,83.70
2022-09-11T00:57:21.880Z,83.60
2022-09-11T01:01:04.195Z,83.70
2022-09-11T01:04:46.037Z,83.70
2022-09-11T01:08:27.938Z,83.60
2022-09-11T01:12:19.695Z,83.60
2022-09-11T01:16:32.859Z,83.40
2022-09-11T01:20:27.090Z,83.20
2022-09-11T01:24:39.933Z,83.20
2022-09-11T01:28:49.147Z,83.10
2022-09-11T01:32:35.628Z,83.40
2022-09-11T01:36:28.935Z,84.10
2022-09-11T01:40:29.997Z,84.30
2022-09-11T01:44:21.549Z,84.10
2022-09-11T01:48:04.912Z,84.70
2022-09-11T01:51:50.330Z,85.10
2022-09-11T01:55:39.414Z,85.20
2022-09-11T01:59:28.032Z,85.50
2022-09-11T02:03:21.159Z,85.90
2022-09-11T02:07:19.545Z,86.30
2022-09-11T02:11:07.379Z,86.10
2022-09-11T02:14:53.422Z,85.80
2022-09-11T02:18:47.552Z,85.80
2022-09-11T02:22:31.207Z,85.70
2022-09-11T02:26:14.163Z,85.80
2022-09-11T02:29:56.384Z,85.80
2022-09-11T02:33:38.378Z,85.80
2022-09-11T02:37:25.676Z,86.30
2022-09-11T02:41:15.259Z,85.80
2022-09-11T02:45:29.117Z,85.80
2022-09-11T02:58:05.780Z,85.60
2022-09-11T03:02:26.327Z,85.40
2022-09-11T03:06:21.863Z,85.70
2022-09-11T03:10:26.648Z,85.70
2022-09-11T03:14:08.615Z,86.00
2022-09-11T03:18:51.435Z,86.00
2022-09-11T03:27:44.023Z,86.20
2022-09-11T03:44:13.931Z,86.00
2022-09-11T03:47:55.878Z,85.90
2022-09-11T03:51:37.997Z,86.00
2022-09-11T03:55:20.042Z,86.00
2022-09-11T03:59:01.891Z,86.10
2022-09-11T04:03:15.803Z,86.00
2022-09-11T04:10:42.541Z,86.00
2022-09-11T04:14:24.544Z,86.20
2022-09-11T04:18:07.660Z,86.40
2022-09-11T04:21:49.452Z,86.60
2022-09-11T04:25:31.608Z,87.00
2022-09-11T04:29:13.444Z,87.10
2022-09-11T04:32:55.590Z,87.30
2022-09-11T04:36:37.574Z,87.60
2022-09-11T04:40:19.367Z,87.90
2022-09-11T04:44:05.222Z,88.00
2022-09-11T04:47:47.166Z,88.10
2022-09-11T04:51:34.880Z,88.10
2022-09-11T04:55:16.780Z,88.30
2022-09-11T04:59:09.597Z,88.50
2022-09-11T05:02:51.601Z,89.00
2022-09-11T05:06:33.415Z,89.30
2022-09-11T05:10:16.364Z,89.70
2022-09-11T05:14:01.503Z,90.00
2022-09-11T05:17:43.296Z,90.20
2022-09-11T05:21:26.359Z,90.60
2022-09-11T05:25:09.639Z,90.40
2022-09-11T05:28:55.818Z,90.50
2022-09-11T05:32:37.593Z,90.60
2022-09-11T05:36:19.403Z,90.80
2022-09-11T05:40:01.357Z,90.90
2022-09-11T05:43:43.764Z,90.90
2022-09-11T05:47:25.735Z,91.00
2022-09-11T05:51:14.727Z,91.00
2022-09-11T05:54:56.873Z,91.00
2022-09-11T05:58:38.699Z,91.20
2022-09-11T06:02:20.540Z,91.20
2022-09-11T06:06:04.176Z,91.20
2022-09-11T06:09:45.938Z,91.30
2022-09-11T06:13:34.043Z,91.20
2022-09-11T06:17:15.810Z,91.10
2022-09-11T06:21:01.836Z,91.00
2022-09-11T06:24:45.120Z,91.00
2022-09-11T06:28:26.897Z,91.00
2022-09-11T06:32:08.827Z,90.90
2022-09-11T06:36:01.551Z,90.80
2022-09-11T06:39:43.416Z,90.70
2022-09-11T06:43:25.447Z,91.10
2022-09-11T06:47:07.403Z,90.90
2022-09-11T06:50:49.231Z,91.00
2022-09-11T06:54:31.000Z,91.00
2022-09-11T06:58:12.786Z,91.00
2022-09-11T07:01:55.511Z,90.90
2022-09-11T07:05:37.414Z,90.90
2022-09-11T07:09:19.218Z,90.80
2022-09-11T07:13:01.167Z,90.90
2022-09-11T07:16:42.985Z,90.70
2022-09-11T07:20:25.250Z,90.80
2022-09-11T07:24:07.408Z,90.80
2022-09-11T07:27:51.904Z,90.80
2022-09-11T07:31:34.491Z,90.60
2022-09-11T07:35:21.398Z,90.40
2022-09-11T07:39:04.026Z,90.30
2022-09-11T07:42:45.787Z,89.90
2022-09-11T07:46:27.716Z,90.10
2022-09-11T07:50:10.165Z,90.40
2022-09-11T07:53:52.785Z,90.10
2022-09-11T07:57:34.644Z,90.10
2022-09-11T08:01:22.039Z,90.00
2022-09-11T08:05:04.045Z,90.00
2022-09-11T08:08:45.936Z,90.00
2022-09-11T08:12:27.756Z,90.10
2022-09-11T08:16:09.750Z,90.00
2022-09-11T08:19:52.053Z,89.90
2022-09-11T08:23:34.107Z,89.80
2022-09-11T08:27:15.882Z,90.00
2022-09-11T08:30:59.151Z,89.90
2022-09-11T08:34:40.971Z,89.50
2022-09-11T08:38:22.979Z,89.10
2022-09-11T08:42:16.495Z,88.60
2022-09-11T08:46:05.519Z,88.40
2022-09-11T08:50:01.542Z,88.20
2022-09-11T08:53:45.560Z,88.10
2022-09-11T08:57:37.867Z,87.80
2022-09-11T09:01:26.224Z,87.40
2022-09-11T09:05:28.414Z,87.20
2022-09-11T09:09:13.650Z,87.00
2022-09-11T09:13:13.015Z,87.60
2022-09-11T09:17:08.408Z,87.30
2022-09-11T09:21:06.576Z,86.30
2022-09-11T09:24:55.133Z,86.10
2022-09-11T09:28:46.869Z,85.30
2022-09-11T09:32:42.206Z,85.40
2022-09-11T09:36:50.364Z,84.20
2022-09-11T09:40:35.102Z,84.20
2022-09-11T09:44:28.536Z,83.20
2022-09-11T09:48:11.938Z,83.40
2022-09-11T09:51:59.804Z,83.00
2022-09-11T09:55:45.119Z,82.50
2022-09-11T09:59:50.801Z,81.60
2022-09-11T10:03:33.696Z,77.50
2022-09-11T10:07:22.307Z,72.60
2022-09-11T10:11:26.791Z,71.30
2022-09-11T10:15:22.532Z,70.00
2022-09-11T10:19:04.331Z,69.70
2022-09-11T10:22:46.423Z,66.70
2022-09-11T10:26:28.424Z,66.50
2022-09-11T10:30:31.513Z,65.70
2022-09-11T10:34:17.219Z,68.60
2022-09-11T10:38:19.857Z,67.80
2022-09-11T10:42:08.231Z,69.40
2022-09-11T10:46:04.736Z,66.20
2022-09-11T10:49:47.254Z,62.70
2022-09-11T10:53:33.952Z,57.70
2022-09-11T10:57:34.167Z,57.10
2022-09-11T11:01:16.089Z,55.80
2022-09-11T11:05:06.229Z,51.60
2022-09-11T11:08:57.955Z,52.10
2022-09-11T11:13:14.566Z,53.50
2022-09-11T11:17:22.716Z,55.20
2022-09-11T11:21:13.254Z,54.50
2022-09-11T11:25:06.891Z,50.30
2022-09-11T11:28:51.721Z,52.40
2022-09-11T11:32:45.242Z,46.60
2022-09-11T11:36:37.966Z,46.60
2022-09-11T11:40:37.771Z,45.90
2022-09-11T11:44:33.492Z,47.60
2022-09-11T11:48:25.538Z,45.20
2022-09-11T11:52:16.750Z,46.10
2022-09-11T11:56:36.809Z,47.10
2022-09-11T12:00:19.142Z,49.20
2022-09-11T12:04:16.422Z,43.60
2022-09-11T12:07:58.497Z,46.20
2022-09-11T12:11:40.422Z,44.00
2022-09-11T12:15:30.228Z,42.90
2022-09-11T12:19:27.977Z,43.20
2022-09-11T12:24:05.027Z,46.80
2022-09-11T12:27:54.050Z,48.80
2022-09-11T12:31:51.314Z,43.80
2022-09-11T12:35:48.584Z,47.10
2022-09-11T12:39:39.246Z,48.40
2022-09-11T12:43:36.192Z,45.30
2022-09-11T12:47:39.851Z,46.40
2022-09-11T12:51:42.298Z,45.80
2022-09-11T12:55:32.451Z,41.00
2022-09-11T12:59:33.413Z,42.00
2022-09-11T13:03:26.240Z,41.60
2022-09-11T13:07:08.455Z,41.70
2022-09-11T13:10:50.700Z,40.10
2022-09-11T13:14:32.496Z,40.50
2022-09-11T13:18:32.040Z,42.30
2022-09-11T13:22:31.318Z,45.20
2022-09-11T13:26:27.197Z,44.20
2022-09-11T13:30:11.529Z,42.00
2022-09-11T13:33:53.611Z,39.00
2022-09-11T13:37:40.515Z,41.40
2022-09-11T13:41:26.103Z,41.20
2022-09-11T13:45:15.604Z,41.10
2022-09-11T13:49:10.397Z,40.70
2022-09-11T13:52:53.995Z,40.90
2022-09-11T13:57:01.735Z,38.80
2022-09-11T14:00:48.679Z,42.00
2022-09-11T14:04:32.975Z,39.80
2022-09-11T14:08:39.352Z,40.60
2022-09-11T14:12:21.140Z,43.70
2022-09-11T14:16:08.286Z,42.40
2022-09-11T14:19:52.424Z,43.20
2022-09-11T14:23:43.071Z,44.00
2022-09-11T14:27:31.411Z,44.80
2022-09-11T14:31:27.035Z,45.40
2022-09-11T14:35:10.428Z,45.60
2022-09-11T14:38:53.414Z,46.30
2022-09-11T14:42:36.857Z,46.00
2022-09-11T14:46:18.673Z,46.80
2022-09-11T14:50:00.845Z,46.70
2022-09-11T14:53:43.392Z,46.10
2022-09-11T14:57:30.665Z,45.60
2022-09-11T15:01:13.950Z,45.50
2022-09-11T15:04:57.751Z,44.70
2022-09-11T15:08:39.526Z,44.10
2022-09-11T15:12:22.268Z,44.70
2022-09-11T15:16:05.705Z,46.50
2022-09-11T15:19:49.792Z,47.70
2022-09-11T15:23:32.141Z,48.20
2022-09-11T15:27:14.995Z,47.70
2022-09-11T15:30:58.948Z,46.70
2022-09-11T15:34:42.082Z,47.20
2022-09-11T15:38:24.303Z,47.50
2022-09-11T15:42:07.465Z,49.20
2022-09-11T15:45:49.389Z,49.10
2022-09-11T15:49:31.785Z,49.70
2022-09-11T15:53:13.675Z,50.20
2022-09-11T15:56:55.812Z,50.50
2022-09-11T16:00:37.815Z,51.30
2022-09-11T16:04:21.975Z,51.80
2022-09-11T16:08:03.770Z,53.40
2022-09-11T16:11:47.863Z,52.70
2022-09-11T16:15:29.700Z,52.10
2022-09-11T16:19:11.527Z,52.90
2022-09-11T16:22:54.701Z,53.80
2022-09-11T16:26:38.336Z,55.30
2022-09-11T16:30:42.196Z,53.90
2022-09-11T16:34:21.920Z,52.50
2022-09-11T16:38:04.922Z,54.00
2022-09-11T16:41:46.842Z,54.40
2022-09-11T16:45:28.754Z,54.40
2022-09-11T16:49:15.555Z,54.50
2022-09-11T16:52:57.372Z,52.20
2022-09-11T16:56:42.723Z,52.40
2022-09-11T17:00:28.966Z,52.90
2022-09-11T17:04:10.761Z,53.30
2022-09-11T17:07:52.595Z,54.70
2022-09-11T17:11:36.354Z,55.00
2022-09-11T17:15:19.484Z,56.20
2022-09-11T17:19:01.817Z,56.70
2022-09-11T17:22:43.599Z,56.70
2022-09-11T17:26:25.424Z,56.70
2022-09-11T17:30:07.819Z,57.10
2022-09-11T17:33:49.727Z,57.90
2022-09-11T17:37:31.541Z,58.40
2022-09-11T17:41:13.403Z,59.30
2022-09-11T17:44:56.175Z,59.60
2022-09-11T17:48:39.742Z,60.10
2022-09-11T17:52:21.651Z,60.40
2022-09-11T17:56:06.285Z,61.50
2022-09-11T17:59:50.325Z,61.40
2022-09-11T18:03:33.574Z,62.10
2022-09-11T18:07:16.008Z,62.20
2022-09-11T18:11:00.479Z,62.70
2022-09-11T18:14:45.271Z,63.20
2022-09-11T18:18:27.492Z,63.60
2022-09-11T18:22:10.067Z,64.10
2022-09-11T18:25:51.912Z,64.60
2022-09-11T18:29:35.216Z,64.70
2022-09-11T18:33:17.085Z,65.10
2022-09-11T18:36:59.958Z,65.50
2022-09-11T18:40:41.885Z,65.60
2022-09-11T18:44:25.322Z,65.90
2022-09-11T18:48:07.165Z,66.40
2022-09-11T18:51:49.385Z,66.80
2022-09-11T18:55:31.219Z,66.90
2022-09-11T18:59:13.908Z,67.30
2022-09-11T19:03:00.223Z,67.60
2022-09-11T19:06:42.256Z,67.90
2022-09-11T19:10:24.099Z,68.00
2022-09-11T19:14:10.901Z,68.00
2022-09-11T19:17:55.272Z,68.10
2022-09-11T19:21:38.431Z,68.50
2022-09-11T19:25:20.550Z,68.70
2022-09-11T19:29:02.567Z,68.70
2022-09-11T19:32:44.407Z,69.80
2022-09-11T19:36:28.247Z,69.40
2022-09-11T19:40:10.263Z,69.60
2022-09-11T19:43:54.124Z,69.70
2022-09-11T19:47:36.304Z,70.20
2022-09-11T19:51:23.042Z,70.60
2022-09-11T19:55:05.111Z,70.90
2022-09-11T19:58:46.891Z,71.20
2022-09-11T20:02:28.677Z,71.50
2022-09-11T20:06:12.072Z,72.00
2022-09-11T20:09:53.839Z,72.20
2022-09-11T20:13:35.839Z,72.50
2022-09-11T20:17:17.871Z,72.70
2022-09-11T20:21:04.767Z,73.00
2022-09-11T20:24:46.691Z,73.10
2022-09-11T20:28:28.473Z,73.50
2022-09-11T20:32:13.098Z,73.80
2022-09-11T20:35:54.919Z,74.10
2022-09-11T20:39:36.810Z,74.50
2022-09-11T20:43:18.671Z,74.20
2022-09-11T20:47:00.605Z,74.60
2022-09-11T20:50:42.500Z,74.80
2022-09-11T20:54:24.273Z,75.10
2022-09-11T20:58:06.236Z,75.20
2022-09-11T21:01:49.379Z,75.30
2022-09-11T21:05:31.188Z,75.30
2022-09-11T21:09:13.093Z,75.50
2022-09-11T21:12:55.344Z,75.50
2022-09-11T21:16:37.516Z,75.70
2022-09-11T21:20:19.377Z,76.20
2022-09-11T21:24:04.096Z,76.10
2022-09-11T21:27:48.248Z,76.20
2022-09-11T21:31:30.505Z,76.20
2022-09-11T21:35:12.533Z,76.60
2022-09-11T21:38:54.355Z,76.90
2022-09-11T21:42:36.151Z,77.20
2022-09-11T21:46:18.007Z,77.40
2022-09-11T21:49:59.933Z,77.70
2022-09-11T21:53:44.032Z,78.20
2022-09-11T21:57:28.920Z,78.20
2022-09-11T22:01:10.824Z,78.40
2022-09-11T22:04:53.172Z,78.40
2022-09-11T22:08:35.503Z,78.40
2022-09-11T22:12:17.427Z,78.60
2022-09-11T22:16:00.433Z,78.80
2022-09-11T22:19:45.928Z,78.60
2022-09-11T22:23:29.881Z,78.70
2022-09-11T22:27:12.491Z,79.10
2022-09-11T22:30:54.933Z,79.00
2022-09-11T22:34:38.042Z,79.50
2022-09-11T22:38:19.927Z,79.50
2022-09-11T22:42:01.741Z,79.90
2022-09-11T22:45:50.657Z,80.10
2022-09-11T22:49:32.591Z,80.20
2022-09-11T22:53:14.504Z,80.60
2022-09-11T22:56:56.460Z,80.70
2022-09-11T23:00:39.165Z,80.90
2022-09-11T23:04:21.007Z,80.80
2022-09-11T23:08:03.102Z,81.00
2022-09-11T23:11:45.860Z,81.30
2022-09-11T23:15:28.275Z,81.10
2022-09-11T23:19:12.830Z,81.20
2022-09-11T23:22:54.938Z,80.90
2022-09-11T23:26:36.911Z,81.10
2022-09-11T23:30:18.744Z,81.50
2022-09-11T23:34:02.831Z,81.50
2022-09-11T23:37:45.573Z,81.70
2022-09-11T23:41:28.433Z,81.80
2022-09-11T23:45:12.772Z,81.60
2022-09-11T23:48:54.662Z,82.10
2022-09-11T23:52:36.709Z,82.30
2022-09-11T23:56:19.448Z,83.10
